Time;durP1;ratioP1;P1;durP2;ratioP2;P2;SDS_P1;SDS_P2;PMS_P1;PMS_P2;Temp;Humidity;BMP_temperature;BMP_pressure;BME280_temperature;BME280_humidity;BME280_pressure;Samples;Min_cycle;Max_cycle;Signal;HPM_P1;HPM_P2
2021/07/12 00:02:00;;;;;;;1.63;1.60;;;22.70;94.80;;;;;;5051104;28;20482;-78
2021/07/12 00:04:26;;;;;;;3.47;1.60;;;22.60;94.80;;;;;;5051496;28;20052;-77
2021/07/12 00:06:52;;;;;;;1.30;1.30;;;22.60;94.90;;;;;;5049896;28;20041;-77
2021/07/12 00:09:18;;;;;;;1.60;1.35;;;22.60;95.00;;;;;;5051156;28;20384;-78
2021/07/12 00:11:44;;;;;;;2.60;1.42;;;22.50;95.10;;;;;;5051299;28;20032;-78
2021/07/12 00:14:10;;;;;;;1.73;1.63;;;22.50;95.10;;;;;;5049820;28;20022;-78
2021/07/12 00:16:36;;;;;;;1.60;1.50;;;22.50;95.20;;;;;;5051150;28;20108;-77
2021/07/12 00:19:02;;;;;;;1.77;1.67;;;22.50;95.20;;;;;;5051220;28;20025;-78
2021/07/12 00:21:28;;;;;;;4.10;1.60;;;22.50;95.20;;;;;;5054984;28;20021;-77
2021/07/12 00:23:53;;;;;;;1.67;1.58;;;22.50;95.10;;;;;;5055050;28;20091;-78
2021/07/12 00:26:19;;;;;;;1.80;1.42;;;22.50;95.20;;;;;;5055143;28;20052;-77
2021/07/12 00:28:45;;;;;;;3.63;1.75;;;22.60;95.20;;;;;;5055072;28;20496;-78
2021/07/12 00:31:11;;;;;;;2.13;1.52;;;22.50;95.10;;;;;;5055112;28;20083;-78
2021/07/12 00:33:39;;;;;;;5.30;4.75;;;22.40;95.30;;;;;;5055059;28;20033;-78
2021/07/12 00:36:06;;;;;;;3.95;3.25;;;22.50;95.30;;;;;;5054979;28;20029;-78
2021/07/12 00:38:32;;;;;;;1.77;1.65;;;22.40;95.50;;;;;;5054622;28;20025;-78
2021/07/12 00:40:58;;;;;;;1.65;1.55;;;22.40;95.60;;;;;;5036948;28;20396;-78
2021/07/12 00:43:24;;;;;;;1.80;1.70;;;22.30;95.60;;;;;;5054789;28;20048;-78
2021/07/12 00:45:51;;;;;;;1.70;1.58;;;22.30;95.60;;;;;;5054625;28;20060;-78
2021/07/12 00:48:17;;;;;;;2.45;1.27;;;22.40;95.60;;;;;;5054949;28;20492;-78
2021/07/12 00:50:44;;;;;;;1.30;1.30;;;22.40;95.50;;;;;;5036860;28;20108;-77
2021/07/12 00:53:11;;;;;;;1.60;1.55;;;22.40;95.50;;;;;;5036663;28;20029;-78
2021/07/12 00:55:45;;;;;;;1.73;1.63;;;22.40;95.60;;;;;;5036646;28;20438;-78
2021/07/12 00:58:14;;;;;;;1.50;1.40;;;22.30;95.80;;;;;;5054362;28;20115;-78
2021/07/12 01:00:42;;;;;;;2.63;1.50;;;22.30;95.70;;;;;;5054468;28;20088;-77
2021/07/12 01:03:10;;;;;;;3.17;1.42;;;22.20;95.80;;;;;;5054417;28;20025;-77
2021/07/12 01:05:37;;;;;;;1.98;1.50;;;22.20;95.90;;;;;;5036430;28;20040;-77
2021/07/12 01:08:03;;;;;;;2.58;1.45;;;22.20;95.90;;;;;;5054338;28;20009;-78
2021/07/12 01:10:30;;;;;;;5.43;1.63;;;22.20;95.90;;;;;;5036330;28;20374;-77
2021/07/12 01:13:01;;;;;;;1.60;1.50;;;22.20;96.10;;;;;;5054300;28;20016;-77
2021/07/12 01:15:34;;;;;;;1.75;1.55;;;22.10;96.20;;;;;;5054505;28;20033;-77
2021/07/12 01:18:28;;;;;;;1.60;1.40;;;22.10;96.20;;;;;;5054149;28;20036;-77
2021/07/12 01:21:37;;;;;;;1.60;1.50;;;22.10;96.10;;;;;;5052810;28;20048;-77
2021/07/12 01:24:12;;;;;;;1.85;1.60;;;22.10;96.30;;;;;;5054200;28;20431;-77
2021/07/12 01:27:15;;;;;;;1.60;1.50;;;22.10;96.30;;;;;;5044551;28;20530;-77
2021/07/12 01:29:46;;;;;;;3.63;1.55;;;22.10;96.30;;;;;;5053806;28;20273;-77
2021/07/12 01:32:50;;;;;;;3.38;1.70;;;22.10;96.10;;;;;;5035024;28;20481;-77
2021/07/12 01:35:23;;;;;;;1.70;1.60;;;22.10;96.00;;;;;;5053764;28;20024;-77
2021/07/12 01:38:26;;;;;;;1.58;1.20;;;22.10;96.00;;;;;;5053728;28;20025;-77
2021/07/12 01:41:01;;;;;;;1.60;1.50;;;22.10;96.10;;;;;;5014238;28;20042;-77
2021/07/12 01:44:04;;;;;;;2.35;1.40;;;22.00;96.50;;;;;;5014007;28;20061;-78
2021/07/12 01:46:41;;;;;;;2.10;1.38;;;22.10;96.00;;;;;;4972731;28;20031;-77
2021/07/12 01:49:13;;;;;;;2.20;1.42;;;22.00;96.10;;;;;;5005996;28;20042;-78
2021/07/12 01:51:49;;;;;;;2.17;1.55;;;22.00;96.00;;;;;;5013769;28;20029;-77
2021/07/12 01:54:45;;;;;;;1.48;1.33;;;22.00;96.00;;;;;;5012751;28;20408;-77
2021/07/12 01:57:23;;;;;;;1.52;1.42;;;22.00;96.00;;;;;;5011586;28;20829;-77
2021/07/12 01:59:58;;;;;;;2.75;1.73;;;22.00;95.90;;;;;;5013962;28;20026;-77
2021/07/12 02:02:32;;;;;;;1.35;1.25;;;22.00;95.70;;;;;;5013517;28;20022;-77
2021/07/12 02:05:05;;;;;;;1.73;1.58;;;22.10;95.70;;;;;;5012413;28;20335;-77
2021/07/12 02:07:34;;;;;;;1.33;1.27;;;22.10;95.50;;;;;;5013792;28;20034;-77
2021/07/12 02:10:02;;;;;;;2.40;1.40;;;22.10;95.50;;;;;;5012295;28;20025;-77
2021/07/12 02:12:30;;;;;;;1.35;1.35;;;22.10;95.40;;;;;;5013093;28;20429;-77
2021/07/12 02:14:56;;;;;;;1.45;1.35;;;22.10;95.40;;;;;;5013517;28;20057;-77
2021/07/12 02:17:24;;;;;;;2.50;1.50;;;22.10;95.30;;;;;;5013162;28;20501;-77
2021/07/12 02:19:51;;;;;;;1.73;1.42;;;22.10;95.00;;;;;;5013280;28;20026;-77
2021/07/12 02:22:18;;;;;;;1.85;1.75;;;22.10;94.90;;;;;;5013268;28;20021;-77
2021/07/12 02:24:46;;;;;;;2.22;1.23;;;22.10;94.80;;;;;;5013411;28;20489;-77
2021/07/12 02:27:19;;;;;;;1.23;1.20;;;22.20;94.80;;;;;;5013079;28;20052;-77
2021/07/12 02:29:46;;;;;;;1.10;1.10;;;22.20;94.90;;;;;;5013295;28;20092;-77
2021/07/12 02:32:12;;;;;;;0.93;0.93;;;22.30;94.80;;;;;;5011700;28;20282;-77
2021/07/12 02:34:39;;;;;;;2.67;1.38;;;22.20;95.20;;;;;;5013301;28;20025;-77
2021/07/12 02:37:05;;;;;;;3.70;1.20;;;22.20;95.00;;;;;;5013117;28;20404;-77
2021/07/12 02:39:33;;;;;;;1.63;1.52;;;22.20;95.10;;;;;;5020900;28;20071;-77
2021/07/12 02:42:02;;;;;;;1.63;1.58;;;22.20;94.90;;;;;;5032515;28;20025;-77
2021/07/12 02:44:30;;;;;;;1.40;1.17;;;22.20;94.80;;;;;;5031394;28;20477;-77
2021/07/12 02:46:58;;;;;;;1.52;1.42;;;22.20;94.80;;;;;;5031375;28;20052;-77
2021/07/12 02:49:24;;;;;;;1.20;1.20;;;22.20;94.90;;;;;;5032668;28;20022;-77
2021/07/12 02:51:59;;;;;;;1.38;1.27;;;22.20;94.90;;;;;;5032375;28;20246;-76
2021/07/12 02:54:31;;;;;;;3.40;1.58;;;22.20;94.90;;;;;;5032399;28;20026;-77
2021/07/12 02:56:57;;;;;;;1.42;1.38;;;22.20;94.90;;;;;;5032583;28;20022;-77
2021/07/12 02:59:23;;;;;;;2.90;1.23;;;22.20;94.70;;;;;;5032340;28;20535;-77
2021/07/12 03:01:49;;;;;;;1.33;1.23;;;22.30;94.70;;;;;;5032286;28;20531;-77
2021/07/12 03:04:15;;;;;;;1.67;1.38;;;22.30;94.50;;;;;;5032145;28;20021;-77
2021/07/12 03:06:46;;;;;;;2.75;1.20;;;22.20;94.60;;;;;;5030849;28;20035;-77
2021/07/12 03:09:13;;;;;;;1.87;1.77;;;22.20;94.80;;;;;;5032304;28;20025;-77
2021/07/12 03:11:50;;;;;;;1.83;1.42;;;22.20;95.00;;;;;;5032228;28;20260;-78
2021/07/12 03:14:20;;;;;;;0.93;0.93;;;22.10;95.00;;;;;;5032230;28;20036;-77
2021/07/12 03:16:49;;;;;;;1.73;1.63;;;22.10;95.10;;;;;;5032074;28;20022;-78
2021/07/12 03:19:23;;;;;;;1.50;1.40;;;22.00;95.40;;;;;;5031894;28;20120;-77
2021/07/12 03:21:51;;;;;;;1.15;1.15;;;22.00;95.20;;;;;;5030527;28;20041;-77
2021/07/12 03:24:19;;;;;;;1.63;1.52;;;22.00;95.40;;;;;;5031968;28;20021;-77
2021/07/12 03:26:51;;;;;;;1.55;1.45;;;21.90;95.30;;;;;;5031993;28;20124;-77
2021/07/12 03:29:17;;;;;;;1.95;1.55;;;22.00;95.40;;;;;;5031935;28;20032;-77
2021/07/12 03:31:44;;;;;;;1.98;1.42;;;22.00;95.50;;;;;;5031844;28;20108;-78
2021/07/12 03:34:13;;;;;;;1.48;1.38;;;21.90;95.50;;;;;;5021959;28;20018;-77
2021/07/12 03:36:40;;;;;;;2.60;1.55;;;21.90;95.60;;;;;;5011969;28;20022;-77
2021/07/12 03:39:07;;;;;;;1.42;1.42;;;21.90;95.80;;;;;;5016773;28;20540;-77
2021/07/12 03:41:34;;;;;;;1.55;1.40;;;21.80;95.90;;;;;;5030562;28;20381;-77
2021/07/12 03:44:01;;;;;;;1.58;1.48;;;21.70;96.10;;;;;;5031574;28;20025;-77
2021/07/12 03:46:26;;;;;;;5.03;1.60;;;21.70;96.30;;;;;;5031556;28;20041;-78
2021/07/12 03:48:52;;;;;;;1.10;1.10;;;21.70;96.30;;;;;;5031696;28;20484;-78
2021/07/12 03:51:23;;;;;;;1.40;1.33;;;21.70;96.40;;;;;;5031473;28;20490;-78
2021/07/12 03:53:49;;;;;;;2.08;1.65;;;21.70;96.30;;;;;;5031262;28;20029;-77
2021/07/12 03:56:16;;;;;;;1.48;1.38;;;21.70;96.40;;;;;;5031366;28;20093;-78
2021/07/12 03:58:41;;;;;;;1.85;1.75;;;21.80;96.50;;;;;;5031470;28;20112;-77
2021/07/12 04:01:07;;;;;;;1.77;1.67;;;21.70;96.60;;;;;;5031382;28;20109;-78
2021/07/12 04:03:33;;;;;;;1.52;1.38;;;21.80;96.70;;;;;;5031216;28;20048;-77
2021/07/12 04:05:59;;;;;;;1.50;1.40;;;21.80;97.20;;;;;;5031529;28;20022;-77
2021/07/12 04:08:26;;;;;;;2.30;1.85;;;21.80;96.80;;;;;;5031304;28;20048;-77
2021/07/12 04:10:51;;;;;;;1.63;1.50;;;21.80;96.70;;;;;;5031446;28;20049;-78
2021/07/12 04:13:17;;;;;;;1.55;1.45;;;21.80;96.90;;;;;;5031196;28;20501;-77
2021/07/12 04:15:43;;;;;;;1.90;1.80;;;21.90;96.90;;;;;;5031328;28;20025;-77
2021/07/12 04:18:10;;;;;;;4.30;1.92;;;21.90;97.10;;;;;;5029952;28;20511;-78
2021/07/12 04:20:37;;;;;;;1.80;1.70;;;21.80;97.30;;;;;;5031260;28;20092;-77
2021/07/12 04:23:04;;;;;;;1.77;1.67;;;21.80;97.20;;;;;;5031153;28;20024;-77
2021/07/12 04:25:30;;;;;;;2.90;1.80;;;21.80;97.30;;;;;;5029817;28;20370;-77
2021/07/12 04:27:57;;;;;;;2.13;1.83;;;21.80;97.40;;;;;;5031156;28;20036;-77
2021/07/12 04:30:24;;;;;;;3.22;1.52;;;21.90;97.60;;;;;;5031115;28;20385;-77
2021/07/12 04:32:51;;;;;;;1.90;1.80;;;21.80;97.60;;;;;;5031002;28;20026;-77
2021/07/12 04:35:16;;;;;;;1.88;1.77;;;21.90;97.70;;;;;;5031175;28;20029;-78
2021/07/12 04:37:42;;;;;;;4.47;1.60;;;21.90;97.80;;;;;;5029953;28;20071;-78
2021/07/12 04:40:09;;;;;;;4.90;1.50;;;21.90;97.80;;;;;;5045522;28;20450;-77
2021/07/12 04:42:35;;;;;;;3.95;2.00;;;21.90;97.90;;;;;;5050898;28;20388;-78
2021/07/12 04:45:04;;;;;;;2.33;2.22;;;22.00;98.00;;;;;;5050936;28;20021;-78
2021/07/12 04:47:30;;;;;;;3.05;2.00;;;22.00;98.00;;;;;;5050804;28;20392;-77
2021/07/12 04:49:56;;;;;;;2.70;2.50;;;22.10;98.00;;;;;;5050731;28;20032;-77
2021/07/12 04:52:22;;;;;;;1.65;1.58;;;22.00;98.20;;;;;;5050887;28;20075;-78
2021/07/12 04:54:49;;;;;;;1.85;1.75;;;22.00;98.30;;;;;;5050722;28;20067;-77
2021/07/12 04:57:15;;;;;;;1.90;1.77;;;22.10;98.20;;;;;;5049698;28;20075;-77
2021/07/12 04:59:41;;;;;;;2.50;2.20;;;22.10;98.30;;;;;;5050757;28;20492;-77
2021/07/12 05:02:08;;;;;;;1.95;1.88;;;22.20;98.40;;;;;;5050684;28;20025;-77
2021/07/12 05:04:36;;;;;;;2.50;2.30;;;22.20;98.50;;;;;;5049920;28;20079;-77
2021/07/12 05:07:02;;;;;;;1.90;1.80;;;22.20;98.60;;;;;;5051292;28;20089;-77
2021/07/12 05:09:28;;;;;;;3.35;2.08;;;22.30;98.50;;;;;;5036506;28;20061;-77
2021/07/12 05:11:54;;;;;;;1.88;1.77;;;22.20;98.70;;;;;;5054286;28;20115;-77
2021/07/12 05:14:20;;;;;;;1.70;1.60;;;22.20;98.90;;;;;;5054315;28;20029;-77
2021/07/12 05:16:46;;;;;;;2.25;2.03;;;22.30;98.80;;;;;;5054242;28;20476;-77
2021/07/12 05:19:14;;;;;;;4.18;2.42;;;22.40;98.60;;;;;;5054150;28;20033;-77
2021/07/12 05:21:41;;;;;;;2.65;2.20;;;22.40;98.90;;;;;;5041497;28;20412;-77
2021/07/12 05:24:07;;;;;;;2.13;2.03;;;22.50;98.80;;;;;;5055242;28;20017;-77
2021/07/12 05:26:33;;;;;;;1.77;1.67;;;22.50;98.80;;;;;;5035954;28;20025;-76
2021/07/12 05:28:58;;;;;;;3.42;2.00;;;22.50;98.90;;;;;;5052666;28;20488;-76
2021/07/12 05:31:24;;;;;;;4.90;2.15;;;22.60;98.80;;;;;;5052272;28;20115;-76
2021/07/12 05:33:50;;;;;;;1.92;1.83;;;22.60;98.90;;;;;;5052502;28;20036;-77
2021/07/12 05:36:16;;;;;;;1.90;1.80;;;22.70;99.00;;;;;;5052577;28;20132;-76
2021/07/12 05:38:42;;;;;;;2.70;2.53;;;22.70;99.00;;;;;;5053488;28;20044;-76
2021/07/12 05:41:07;;;;;;;2.53;2.33;;;22.70;99.10;;;;;;5035601;28;20098;-76
2021/07/12 05:43:34;;;;;;;4.00;2.08;;;22.80;99.10;;;;;;5035735;28;20507;-76
2021/07/12 05:46:00;;;;;;;2.30;2.15;;;22.80;99.20;;;;;;5035770;28;20053;-76
2021/07/12 05:48:25;;;;;;;4.95;2.20;;;22.90;99.40;;;;;;5052739;28;20061;-76
2021/07/12 05:50:52;;;;;;;2.17;2.08;;;23.00;99.40;;;;;;5054103;28;20025;-76
2021/07/12 05:53:17;;;;;;;2.25;2.05;;;23.00;99.60;;;;;;5052215;28;20079;-76
2021/07/12 05:55:43;;;;;;;2.33;2.13;;;23.10;99.80;;;;;;5053588;28;20025;-76
2021/07/12 05:58:09;;;;;;;4.50;1.90;;;23.20;99.90;;;;;;5053265;28;20461;-76
2021/07/12 06:00:35;;;;;;;3.75;1.83;;;23.30;99.60;;;;;;5053544;28;20021;-76
2021/07/12 06:03:01;;;;;;;2.10;2.00;;;23.40;99.50;;;;;;5051920;28;20498;-76
2021/07/12 06:05:27;;;;;;;1.98;1.75;;;23.40;99.20;;;;;;5053501;28;20384;-76
2021/07/12 06:07:53;;;;;;;3.00;2.30;;;23.50;99.10;;;;;;5053268;28;20036;-76
2021/07/12 06:10:19;;;;;;;2.25;2.05;;;23.60;99.20;;;;;;5053445;28;20488;-76
2021/07/12 06:12:45;;;;;;;1.90;1.80;;;23.60;99.20;;;;;;5053297;28;20444;-76
2021/07/12 06:15:11;;;;;;;5.35;1.92;;;23.70;99.10;;;;;;5053006;28;20021;-76
2021/07/12 06:17:38;;;;;;;2.10;2.00;;;23.70;99.00;;;;;;5052737;28;20388;-76
2021/07/12 06:20:07;;;;;;;1.90;1.80;;;23.80;99.20;;;;;;5053039;28;20478;-76
2021/07/12 06:22:33;;;;;;;2.75;1.73;;;23.90;99.40;;;;;;5035074;28;20025;-76
2021/07/12 06:24:59;;;;;;;1.80;1.70;;;23.90;99.90;;;;;;5035049;28;20067;-76
2021/07/12 06:27:25;;;;;;;3.17;1.88;;;24.00;99.90;;;;;;5052478;28;20037;-76
2021/07/12 06:29:51;;;;;;;2.67;2.05;;;24.00;99.90;;;;;;5051951;28;20029;-78
2021/07/12 06:32:16;;;;;;;1.88;1.77;;;24.10;99.70;;;;;;5052527;28;20599;-78
2021/07/12 06:34:42;;;;;;;1.55;1.55;;;24.20;99.90;;;;;;5052669;28;20025;-76
2021/07/12 06:37:08;;;;;;;1.98;1.88;;;24.20;99.90;;;;;;5052713;28;20112;-76
2021/07/12 06:39:34;;;;;;;2.78;1.70;;;24.30;99.90;;;;;;5052192;28;20120;-76
2021/07/12 06:42:00;;;;;;;5.72;1.70;;;24.30;99.90;;;;;;5034503;28;20021;-76
2021/07/12 06:44:26;;;;;;;1.70;1.60;;;24.30;99.90;;;;;;5052592;28;20048;-76
2021/07/12 06:46:52;;;;;;;2.20;2.10;;;24.40;99.90;;;;;;5052450;28;20048;-76
2021/07/12 06:49:18;;;;;;;1.80;1.70;;;24.40;99.90;;;;;;5051214;28;20025;-76
2021/07/12 06:51:44;;;;;;;3.28;2.03;;;24.50;99.90;;;;;;5052227;28;20141;-76
2021/07/12 06:54:09;;;;;;;2.28;2.08;;;24.60;99.90;;;;;;5052339;28;20024;-76
2021/07/12 06:56:35;;;;;;;2.13;2.03;;;24.70;99.90;;;;;;5052475;28;20400;-76
2021/07/12 06:59:01;;;;;;;2.08;1.90;;;24.80;99.90;;;;;;5051609;28;20027;-76
2021/07/12 07:01:27;;;;;;;2.72;2.10;;;24.80;99.90;;;;;;5051897;28;20024;-77
2021/07/12 07:03:53;;;;;;;2.30;1.83;;;24.90;99.20;;;;;;5042066;28;20241;-77
2021/07/12 07:06:19;;;;;;;2.30;1.92;;;24.90;99.20;;;;;;5034179;28;20412;-77
2021/07/12 07:08:44;;;;;;;3.70;2.05;;;24.90;98.20;;;;;;5034058;28;20017;-77
2021/07/12 07:11:10;;;;;;;2.08;1.98;;;24.90;98.30;;;;;;5052160;28;20553;-77
2021/07/12 07:13:36;;;;;;;6.45;2.00;;;25.00;98.50;;;;;;5034074;28;20033;-77
2021/07/12 07:16:03;;;;;;;6.80;2.25;;;25.00;98.40;;;;;;5051931;28;20029;-77
2021/07/12 07:18:28;;;;;;;3.10;2.80;;;25.00;97.40;;;;;;5051848;28;20028;-77
2021/07/12 07:20:54;;;;;;;4.38;2.58;;;25.10;97.30;;;;;;5051642;28;20570;-77
2021/07/12 07:23:24;;;;;;;3.45;2.95;;;25.10;97.30;;;;;;5050222;28;20028;-77
2021/07/12 07:25:50;;;;;;;4.72;2.70;;;25.10;96.70;;;;;;5051967;28;20013;-77
2021/07/12 07:28:22;;;;;;;2.15;2.05;;;25.20;95.20;;;;;;5051670;28;20140;-77
2021/07/12 07:30:47;;;;;;;;;;;25.20;96.00;;;;;;5051799;28;20032;-77
2021/07/12 07:33:14;;;;;;;2.40;2.20;;;25.20;95.90;;;;;;5050260;28;19909;-77
2021/07/12 07:35:40;;;;;;;2.58;2.17;;;25.20;96.10;;;;;;5051582;28;20029;-77
2021/07/12 07:38:06;;;;;;;3.30;2.30;;;25.30;95.90;;;;;;5051329;28;20067;-77
2021/07/12 07:40:32;;;;;;;3.35;2.30;;;25.30;95.60;;;;;;5051406;28;20048;-77
2021/07/12 07:42:58;;;;;;;2.80;2.60;;;25.40;95.70;;;;;;5051499;28;20108;-77
2021/07/12 07:45:24;;;;;;;6.05;2.38;;;25.50;93.70;;;;;;5051324;28;20409;-77
2021/07/12 07:47:49;;;;;;;2.58;1.83;;;25.50;94.80;;;;;;5051090;28;20488;-77
2021/07/12 07:50:16;;;;;;;1.92;1.83;;;25.60;94.80;;;;;;5050945;28;20032;-77
2021/07/12 07:52:42;;;;;;;3.38;2.55;;;25.60;95.30;;;;;;5031469;28;20483;-77
2021/07/12 07:55:09;;;;;;;2.85;2.25;;;25.60;94.90;;;;;;5031424;28;20033;-77
2021/07/12 07:57:40;;;;;;;2.30;2.17;;;25.60;94.30;;;;;;5031525;28;20079;-77
2021/07/12 08:00:18;;;;;;;3.95;2.17;;;25.70;94.80;;;;;;5031421;28;20099;-77
2021/07/12 08:02:44;;;;;;;2.72;2.53;;;25.70;95.90;;;;;;5013631;28;20025;-77
2021/07/12 08:05:10;;;;;;;2.65;2.45;;;25.90;94.40;;;;;;5031377;28;20032;-77
2021/07/12 08:07:37;;;;;;;4.47;2.42;;;25.90;94.40;;;;;;5031435;28;20022;-77
2021/07/12 08:10:14;;;;;;;3.30;3.05;;;26.00;94.70;;;;;;5031447;28;20091;-77
2021/07/12 08:12:40;;;;;;;3.00;2.70;;;26.00;93.40;;;;;;5029857;28;20029;-77
2021/07/12 08:15:08;;;;;;;3.17;2.60;;;26.00;94.00;;;;;;5031327;28;20397;-77
2021/07/12 08:17:34;;;;;;;6.00;2.83;;;26.10;93.80;;;;;;5045595;28;20021;-77
2021/07/12 08:20:00;;;;;;;2.28;2.17;;;26.10;94.00;;;;;;5029391;28;20183;-77
2021/07/12 08:22:25;;;;;;;3.15;2.45;;;26.20;94.20;;;;;;5047473;28;20039;-77
2021/07/12 08:24:51;;;;;;;4.70;2.58;;;26.30;94.10;;;;;;5028712;28;20036;-77
2021/07/12 08:27:17;;;;;;;4.70;2.78;;;26.40;93.30;;;;;;5029514;28;20052;-77
2021/07/12 08:29:43;;;;;;;4.80;3.03;;;26.40;93.00;;;;;;5028819;28;20025;-77
2021/07/12 08:32:09;;;;;;;3.30;2.90;;;26.40;93.10;;;;;;5046440;28;20017;-77
2021/07/12 08:34:40;;;;;;;3.30;2.95;;;26.40;93.00;;;;;;5029443;28;20033;-77
2021/07/12 08:37:07;;;;;;;4.20;3.80;;;26.40;92.70;;;;;;5046728;28;20009;-77
2021/07/12 08:39:32;;;;;;;2.88;2.60;;;26.40;92.40;;;;;;5046353;28;20059;-77
2021/07/12 08:41:59;;;;;;;3.50;2.50;;;26.50;93.60;;;;;;5053814;28;20021;-77
2021/07/12 08:44:26;;;;;;;6.35;3.20;;;26.50;93.20;;;;;;5054675;28;20036;-77
2021/07/12 08:46:53;;;;;;;3.97;2.72;;;26.70;93.20;;;;;;5054812;28;20055;-77
2021/07/12 08:49:19;;;;;;;5.78;3.70;;;26.80;93.20;;;;;;5054723;28;20036;-77
2021/07/12 08:51:45;;;;;;;4.45;3.15;;;26.90;92.50;;;;;;5054552;28;20134;-77
2021/07/12 08:54:10;;;;;;;3.00;2.53;;;26.80;93.20;;;;;;5049721;28;20571;-77
2021/07/12 08:56:37;;;;;;;3.20;3.00;;;26.90;93.60;;;;;;5050069;28;20026;-77
2021/07/12 08:59:32;;;;;;;4.28;2.80;;;27.10;94.10;;;;;;5050600;28;20500;-77
2021/07/12 09:02:05;;;;;;;3.17;2.97;;;27.10;93.60;;;;;;5049859;28;20034;-77
2021/07/12 09:04:31;;;;;;;8.07;2.97;;;27.10;92.50;;;;;;5048560;28;20071;-77
2021/07/12 09:07:08;;;;;;;3.28;3.08;;;27.10;92.90;;;;;;5050470;28;20021;-77
2021/07/12 09:09:34;;;;;;;5.15;3.85;;;27.10;94.10;;;;;;5050582;28;20362;-76
2021/07/12 09:12:10;;;;;;;2.95;2.80;;;27.10;93.20;;;;;;5049965;28;20029;-77
2021/07/12 09:14:39;;;;;;;3.58;3.28;;;27.10;93.00;;;;;;5049920;28;20104;-77
2021/07/12 09:17:06;;;;;;;4.10;3.60;;;27.10;92.60;;;;;;5049756;28;20421;-77
2021/07/12 09:19:37;;;;;;;3.30;3.00;;;27.20;92.40;;;;;;5050308;28;20025;-77
2021/07/12 09:22:04;;;;;;;3.55;3.25;;;27.20;92.30;;;;;;5050111;28;20032;-77
2021/07/12 09:24:55;;;;;;;3.55;3.25;;;27.20;93.20;;;;;;5049681;28;20075;-77
2021/07/12 09:27:29;;;;;;;4.38;2.83;;;27.30;93.80;;;;;;5050514;28;20095;-77
2021/07/12 09:29:59;;;;;;;3.53;3.22;;;27.30;93.40;;;;;;5049796;28;20091;-77
2021/07/12 09:32:27;;;;;;;3.47;3.15;;;27.50;91.90;;;;;;5049450;28;20028;-76
2021/07/12 09:35:00;;;;;;;5.07;3.80;;;27.50;92.00;;;;;;5049680;28;20017;-77
2021/07/12 09:37:26;;;;;;;3.65;3.35;;;27.50;91.80;;;;;;5032297;28;20117;-77
2021/07/12 09:39:53;;;;;;;3.40;3.10;;;27.70;91.40;;;;;;5049050;28;20124;-77
2021/07/12 09:42:24;;;;;;;3.42;3.10;;;27.80;89.10;;;;;;5049255;28;20029;-77
2021/07/12 09:44:55;;;;;;;3.63;3.22;;;27.90;91.40;;;;;;5049888;28;20078;-77
2021/07/12 09:47:24;;;;;;;4.20;3.80;;;28.00;92.00;;;;;;5049955;28;20021;-77
2021/07/12 09:49:52;;;;;;;4.25;3.95;;;28.00;91.30;;;;;;5048593;28;20487;-76
2021/07/12 09:52:20;;;;;;;4.97;3.70;;;28.00;90.80;;;;;;5050011;28;20104;-77
2021/07/12 09:54:48;;;;;;;4.68;3.70;;;28.10;91.00;;;;;;5053183;28;20537;-77
2021/07/12 09:57:19;;;;;;;4.95;3.60;;;28.10;91.80;;;;;;5052573;28;20021;-77
2021/07/12 09:59:58;;;;;;;3.55;3.17;;;28.20;91.30;;;;;;5050963;28;20029;-77
2021/07/12 10:02:26;;;;;;;3.92;3.55;;;28.30;90.50;;;;;;5040875;28;20096;-77
2021/07/12 10:05:00;;;;;;;4.43;3.58;;;28.20;90.70;;;;;;5036645;28;20032;-77
2021/07/12 10:07:26;;;;;;;3.08;2.88;;;28.30;92.40;;;;;;5053465;28;20045;-77
2021/07/12 10:09:53;;;;;;;3.63;3.33;;;28.40;92.70;;;;;;5035434;28;20083;-77
2021/07/12 10:12:19;;;;;;;4.57;4.18;;;28.40;91.50;;;;;;5053137;28;20416;-77
2021/07/12 10:14:45;;;;;;;3.67;3.28;;;28.40;90.90;;;;;;5053325;28;20021;-77
2021/07/12 10:17:12;;;;;;;3.50;3.20;;;28.50;90.60;;;;;;5043167;28;20644;-77
2021/07/12 10:19:38;;;;;;;6.13;3.92;;;28.50;90.70;;;;;;5045754;28;20508;-77
2021/07/12 10:22:05;;;;;;;3.22;3.00;;;28.50;90.60;;;;;;5049591;28;20147;-76
2021/07/12 10:24:46;;;;;;;3.58;3.17;;;28.40;89.70;;;;;;5052703;28;20017;-77
2021/07/12 10:27:19;;;;;;;4.75;3.45;;;28.40;88.50;;;;;;5052868;28;20052;-77
2021/07/12 10:29:45;;;;;;;5.05;3.80;;;28.40;90.10;;;;;;5052955;28;20032;-77
2021/07/12 10:32:13;;;;;;;3.40;3.10;;;28.50;90.40;;;;;;5052844;28;20517;-77
2021/07/12 10:34:47;;;;;;;4.40;3.60;;;28.50;87.80;;;;;;5052702;28;20558;-76
2021/07/12 10:37:16;;;;;;;6.97;3.40;;;28.50;88.90;;;;;;5052562;28;20027;-77
2021/07/12 10:39:59;;;;;;;3.33;3.03;;;28.50;87.80;;;;;;5052591;28;20586;-77
2021/07/12 10:42:44;;;;;;;3.30;3.00;;;28.60;87.80;;;;;;5034557;28;20021;-76
2021/07/12 10:45:27;;;;;;;3.35;3.05;;;28.80;83.50;;;;;;5052495;28;20024;-76
2021/07/12 10:48:04;;;;;;;6.90;3.20;;;28.70;83.90;;;;;;5052516;28;20033;-77
2021/07/12 10:50:51;;;;;;;4.13;3.08;;;28.70;86.10;;;;;;5052655;28;20029;-77
2021/07/12 10:53:20;;;;;;;3.50;3.20;;;28.80;84.50;;;;;;5052246;28;20021;-76
2021/07/12 10:55:58;;;;;;;2.75;2.63;;;28.90;83.90;;;;;;5051063;28;20037;-77
2021/07/12 10:58:25;;;;;;;3.28;2.97;;;29.00;83.40;;;;;;5052171;28;20028;-76
2021/07/12 11:00:54;;;;;;;3.55;3.25;;;29.10;80.50;;;;;;5051182;28;20029;-77
2021/07/12 11:03:42;;;;;;;3.30;3.10;;;29.00;80.60;;;;;;5052127;28;20025;-76
2021/07/12 11:06:20;;;;;;;2.63;2.42;;;29.10;80.40;;;;;;5050478;28;20025;-76
2021/07/12 11:08:53;;;;;;;2.67;2.47;;;29.20;83.50;;;;;;5050875;28;20431;-77
2021/07/12 11:11:18;;;;;;;2.85;2.53;;;29.40;81.60;;;;;;5052080;28;20492;-76
2021/07/12 11:13:54;;;;;;;3.10;2.88;;;29.30;80.80;;;;;;5052228;28;20064;-77
2021/07/12 11:16:21;;;;;;;4.15;2.90;;;29.40;81.30;;;;;;5052060;28;20480;-76
2021/07/12 11:18:47;;;;;;;4.20;2.75;;;29.40;81.60;;;;;;5033892;28;20027;-76
2021/07/12 11:21:14;;;;;;;2.95;2.30;;;29.40;83.30;;;;;;5051919;28;20108;-76
2021/07/12 11:24:02;;;;;;;2.47;2.38;;;29.50;80.30;;;;;;5051752;28;20384;-77
2021/07/12 11:26:27;;;;;;;2.92;2.70;;;29.50;78.40;;;;;;5051944;28;20079;-76
2021/07/12 11:28:56;;;;;;;3.20;2.92;;;29.50;81.30;;;;;;5033888;28;20671;-77
2021/07/12 11:31:43;;;;;;;3.63;3.15;;;29.60;80.20;;;;;;5051617;28;20020;-76
2021/07/12 11:34:12;;;;;;;2.67;2.47;;;29.70;79.30;;;;;;5033935;28;20040;-76
2021/07/12 11:36:38;;;;;;;2.70;2.50;;;29.80;80.20;;;;;;5051861;28;20033;-77
2021/07/12 11:39:04;;;;;;;3.65;2.67;;;29.90;82.90;;;;;;5051539;28;20049;-76
2021/07/12 11:41:31;;;;;;;2.95;2.75;;;30.00;81.00;;;;;;5051502;28;20025;-76
2021/07/12 11:44:12;;;;;;;4.72;2.75;;;30.00;79.80;;;;;;5051774;28;20079;-77
2021/07/12 11:46:39;;;;;;;3.47;2.78;;;30.20;77.10;;;;;;5051636;28;20032;-77
2021/07/12 11:49:21;;;;;;;2.55;2.38;;;30.10;79.70;;;;;;5051877;28;20024;-77
2021/07/12 11:51:53;;;;;;;2.72;2.63;;;30.10;79.20;;;;;;5050266;28;20053;-76
2021/07/12 11:54:26;;;;;;;4.13;2.35;;;30.00;82.50;;;;;;5050717;28;20079;-77
2021/07/12 11:57:10;;;;;;;2.92;2.72;;;30.00;82.30;;;;;;5043454;28;20029;-77
2021/07/12 11:59:39;;;;;;;3.20;2.70;;;30.20;82.80;;;;;;5051296;28;20031;-76
2021/07/12 12:02:09;;;;;;;2.72;2.53;;;30.30;83.00;;;;;;5051288;28;20616;-76
2021/07/12 12:04:42;;;;;;;3.03;2.83;;;30.40;82.50;;;;;;5051708;28;20099;-76
2021/07/12 12:07:35;;;;;;;3.67;3.05;;;30.50;80.80;;;;;;5033661;28;20021;-76
2021/07/12 12:10:08;;;;;;;8.00;2.42;;;30.40;80.40;;;;;;5033744;28;20112;-76
2021/07/12 12:12:37;;;;;;;2.42;2.33;;;30.50;83.20;;;;;;5051311;28;20499;-76
2021/07/12 12:15:11;;;;;;;2.65;2.45;;;30.70;83.20;;;;;;5051366;28;20025;-76
2021/07/12 12:17:40;;;;;;;8.07;2.35;;;30.80;80.10;;;;;;5055463;28;20060;-76
2021/07/12 12:20:13;;;;;;;2.90;2.70;;;31.00;80.90;;;;;;5055643;28;20098;-76
2021/07/12 12:22:57;;;;;;;2.67;2.38;;;31.20;80.60;;;;;;5056351;28;20021;-76
2021/07/12 12:25:24;;;;;;;2.78;2.58;;;31.30;80.00;;;;;;5038568;28;20021;-76
2021/07/12 12:27:50;;;;;;;2.70;2.50;;;31.40;77.50;;;;;;5056304;28;20029;-76
2021/07/12 12:30:18;;;;;;;2.65;2.45;;;31.40;76.40;;;;;;5055481;28;20025;-75
2021/07/12 12:32:53;;;;;;;2.35;2.25;;;31.40;76.80;;;;;;5037326;28;20033;-76
2021/07/12 12:35:22;;;;;;;3.55;2.60;;;31.40;76.40;;;;;;5055604;28;20469;-76
2021/07/12 12:37:48;;;;;;;2.42;2.33;;;31.50;74.10;;;;;;5055227;28;20029;-76
2021/07/12 12:40:20;;;;;;;4.68;2.42;;;31.50;71.60;;;;;;5055328;28;20059;-75
2021/07/12 12:42:46;;;;;;;;;;;31.70;73.80;;;;;;5054712;28;20025;-75
2021/07/12 12:45:21;;;;;;;2.55;2.40;;;31.70;72.30;;;;;;5054271;28;19927;-75
2021/07/12 12:47:47;;;;;;;4.63;2.55;;;31.70;70.60;;;;;;5054158;28;20067;-75
2021/07/12 12:50:16;;;;;;;2.63;2.47;;;31.80;71.10;;;;;;5054046;28;20029;-75
2021/07/12 12:52:42;;;;;;;2.65;2.45;;;32.00;73.10;;;;;;5054732;28;20092;-75
2021/07/12 12:55:11;;;;;;;3.08;2.60;;;32.10;70.30;;;;;;5054904;28;20481;-75
2021/07/12 12:57:42;;;;;;;4.30;2.70;;;32.10;68.70;;;;;;5036871;28;20024;-75
2021/07/12 13:00:09;;;;;;;2.80;2.70;;;32.20;67.30;;;;;;5054671;28;20044;-75